Pagina principale
METAR-TAF:

METAR-TAF

Aeroporti :

Odessa, Ucraina

latitudine: 46-26N, longitudine: 030-46E, altezza: 42 m

Osservazione

Il bollettino è stato emesso 33 minuti fa, alle 00:00 UTC
Vento 4 kt da nord/nord-ovest
Temperature 15°C
Umidità 72%
Pressione 1016 hPa
Visibilità 10 km o più
nessuna nube inferiore a 1500 m e nessun cumulonembo

METAR: UKOO 240000Z 34002MPS CAVOK 15/10 Q1016 R34/090060 NOSIG

Ora: 03:33 (00:33 UTC)

Previsione

Il bollettino è stato emesso 1 ora e 28 minuti fa, alle 23:05 UTC
Previsione valida dal 24 alle 00 UTC al 24 alle 24 UTC
Vento 6 kt da nord
Visibilità: 6000 m

TAF: UKOO 232305Z 2400/2424 01003MPS 6000 NSC TX28/2412Z TN15/2402Z

Osservazioni e previsioni meteorologiche di più di 4000 aeroporti (messaggi METAR e TAF).

Le stazioni disponibili sono rappresentate dai dischi gialli e rossi sulla carta.

Puntare il mouse per vedere il nome della stazione.

Clicca sopra per visualizzare le osservazioni e previsioni meteorologiche.

Per cambiare la mappa : fare clic sui pulsanti verdi con una croce nera per ingrandire, il pulsante verde con un trattino per diminuire, o sulla freccia verde per le mappe adiacenti.


METAR-TAF: